Time;durP1;ratioP1;P1;durP2;ratioP2;P2;SDS_P1;SDS_P2;PMS_P1;PMS_P2;Temp;Humidity;BMP_temperature;BMP_pressure;BME280_temperature;BME280_humidity;BME280_pressure;Samples;Min_cycle;Max_cycle;Signal;HPM_P1;HPM_P2
2023/10/23 00:01:48;;;;;;;6.25;2.03;;;;;;;4.64;60.62;101187.66;4978165;28;20435;-68
2023/10/23 00:04:13;;;;;;;6.72;2.55;;;;;;;4.57;60.61;101180.00;4974465;28;20408;-67
2023/10/23 00:06:42;;;;;;;3.25;1.77;;;;;;;4.64;60.15;101185.06;4977058;28;20204;-69
2023/10/23 00:09:08;;;;;;;5.60;1.65;;;;;;;4.60;59.64;101190.31;4974195;28;20501;-67
2023/10/23 00:11:33;;;;;;;6.05;1.80;;;;;;;4.52;60.73;101184.34;4976889;28;20034;-68
2023/10/23 00:13:59;;;;;;;3.92;2.50;;;;;;;4.51;60.59;101187.81;4980269;28;20044;-67
2023/10/23 00:16:24;;;;;;;4.63;2.05;;;;;;;4.56;60.17;101186.88;4982954;28;20195;-68
2023/10/23 00:18:51;;;;;;;7.63;2.00;;;;;;;4.42;61.47;101188.75;4977013;28;20058;-68
2023/10/23 00:21:17;;;;;;;4.90;2.33;;;;;;;4.65;60.44;101198.88;4969928;28;21272;-67
2023/10/23 00:23:42;;;;;;;3.90;1.70;;;;;;;4.60;60.04;101195.47;4977531;28;20142;-67
2023/10/23 00:26:08;;;;;;;3.17;2.15;;;;;;;4.53;59.81;101194.69;4975929;28;20037;-67
2023/10/23 00:28:34;;;;;;;3.47;1.45;;;;;;;4.48;60.11;101198.22;4975717;28;20061;-68
2023/10/23 00:31:00;;;;;;;4.40;2.58;;;;;;;4.47;60.28;101202.50;4974241;28;20048;-68
2023/10/23 00:33:27;;;;;;;5.90;2.08;;;;;;;4.46;60.54;101205.97;4967088;28;20423;-68
2023/10/23 00:35:53;;;;;;;4.57;1.92;;;;;;;4.45;60.26;101205.97;4984341;28;20514;-68
2023/10/23 00:38:19;;;;;;;8.88;2.40;;;;;;;4.49;60.21;101200.75;4973682;28;20512;-68
2023/10/23 00:40:44;;;;;;;5.78;2.70;;;;;;;4.43;60.94;101206.88;4985102;28;20044;-68
2023/10/23 00:43:28;;;;;;;4.25;2.72;;;;;;;4.54;60.29;101201.59;4972763;28;20046;-68
2023/10/23 00:45:59;;;;;;;3.92;2.42;;;;;;;4.51;59.95;101204.19;4972427;28;20137;-67
2023/10/23 00:48:25;;;;;;;4.63;2.78;;;;;;;4.49;60.33;101205.94;4989239;28;20444;-67
2023/10/23 00:50:58;;;;;;;7.70;2.40;;;;;;;4.48;60.23;101213.75;4988009;28;20034;-68
2023/10/23 00:53:27;;;;;;;4.53;2.22;;;;;;;4.23;61.78;101216.53;4973804;28;20030;-67
2023/10/23 00:55:54;;;;;;;3.83;2.67;;;;;;;4.42;60.69;101214.63;4984525;28;20030;-68
2023/10/23 00:58:20;;;;;;;5.57;2.33;;;;;;;4.46;60.10;101220.66;4966799;28;20129;-67
2023/10/23 01:00:48;;;;;;;4.43;1.90;;;;;;;4.45;60.20;101221.50;4968378;28;20318;-68
2023/10/23 01:03:13;;;;;;;3.05;2.00;;;;;;;4.40;59.70;101226.72;4975729;28;20493;-68
2023/10/23 01:05:39;;;;;;;3.53;2.55;;;;;;;4.31;60.08;101222.47;4980767;28;21223;-69
2023/10/23 01:08:06;;;;;;;2.75;1.42;;;;;;;4.33;59.82;101225.06;4982887;28;20045;-68
2023/10/23 01:10:34;;;;;;;5.68;2.88;;;;;;;4.27;59.74;101225.97;4980285;28;20282;-67
2023/10/23 01:12:59;;;;;;;2.47;2.00;;;;;;;4.26;59.80;101220.81;4986268;28;20050;-67
2023/10/23 01:15:26;;;;;;;4.75;2.75;;;;;;;4.21;59.91;101221.72;4987189;28;20037;-67
2023/10/23 01:17:52;;;;;;;3.85;2.10;;;;;;;4.21;60.21;101226.88;4979851;28;20045;-68
2023/10/23 01:20:18;;;;;;;8.32;2.25;;;;;;;4.19;59.93;101222.59;4977921;28;20823;-67
2023/10/23 01:22:44;;;;;;;3.50;2.30;;;;;;;4.05;60.23;101234.75;4964008;28;20046;-68
2023/10/23 01:25:15;;;;;;;4.60;2.55;;;;;;;4.00;60.04;101237.38;4982518;28;20034;-67
2023/10/23 01:27:41;;;;;;;2.75;1.67;;;;;;;3.96;60.14;101239.16;4977715;28;20065;-68
2023/10/23 01:30:09;;;;;;;3.33;2.33;;;;;;;3.94;60.22;101240.88;4979731;28;20037;-67
2023/10/23 01:32:36;;;;;;;2.95;2.08;;;;;;;3.89;60.06;101240.03;4967946;28;20038;-68
2023/10/23 01:35:02;;;;;;;5.38;2.83;;;;;;;3.86;60.20;101234.03;4991866;28;20033;-67
2023/10/23 01:37:27;;;;;;;4.32;2.03;;;;;;;3.88;60.46;101238.31;4976730;28;20048;-67
2023/10/23 01:39:53;;;;;;;3.03;2.10;;;;;;;3.85;60.03;101243.53;4980143;28;20030;-68
2023/10/23 01:42:18;;;;;;;2.53;1.90;;;;;;;3.83;60.43;101247.84;4977675;28;20034;-68
2023/10/23 01:44:44;;;;;;;10.48;3.05;;;;;;;3.91;60.17;101243.47;4986487;28;20046;-67
2023/10/23 01:47:09;;;;;;;9.13;3.83;;;;;;;3.87;60.03;101241.75;4977300;28;20367;-68
2023/10/23 01:49:36;;;;;;;5.97;2.10;;;;;;;3.85;60.27;101238.34;4965970;28;20119;-68
2023/10/23 01:52:02;;;;;;;5.00;2.50;;;;;;;3.85;60.73;101246.13;4986568;28;20504;-67
2023/10/23 01:54:28;;;;;;;5.55;2.25;;;;;;;3.89;60.33;101249.53;4979100;28;20217;-66
2023/10/23 01:56:54;;;;;;;6.72;2.70;;;;;;;3.85;60.01;101243.53;4979222;28;20033;-67
2023/10/23 01:59:19;;;;;;;3.38;2.20;;;;;;;3.82;60.37;101243.53;4983920;28;20026;-68
2023/10/23 02:01:45;;;;;;;3.53;2.60;;;;;;;3.75;60.25;101244.44;4983610;28;20473;-67
2023/10/23 02:04:10;;;;;;;6.20;2.00;;;;;;;3.73;60.11;101241.00;4974327;28;20495;-68
2023/10/23 02:06:36;;;;;;;2.45;1.80;;;;;;;3.70;60.14;101248.78;4980422;28;20556;-66
2023/10/23 02:09:02;;;;;;;5.47;2.25;;;;;;;3.69;60.09;101247.91;4985240;28;20198;-67
2023/10/23 02:11:28;;;;;;;5.32;2.78;;;;;;;3.64;60.11;101249.66;4977180;28;20108;-70
2023/10/23 02:13:54;;;;;;;4.82;1.70;;;;;;;3.61;60.13;101252.28;4964633;28;20294;-70
2023/10/23 02:16:24;;;;;;;4.63;2.15;;;;;;;3.57;59.91;101254.00;4985104;28;20309;-66
2023/10/23 02:18:49;;;;;;;3.67;2.53;;;;;;;3.55;60.19;101255.72;4965322;28;20096;-68
2023/10/23 02:21:15;;;;;;;3.60;1.75;;;;;;;3.57;59.98;101253.16;4975338;28;20639;-66
2023/10/23 02:23:40;;;;;;;2.60;2.08;;;;;;;3.52;59.78;101260.06;4970926;28;20042;-66
2023/10/23 02:26:06;;;;;;;3.83;2.60;;;;;;;3.54;61.15;101269.53;4982952;28;20026;-68
2023/10/23 02:28:31;;;;;;;4.05;2.22;;;;;;;3.62;60.43;101266.06;4983719;28;20086;-69
2023/10/23 02:30:56;;;;;;;4.32;2.38;;;;;;;3.55;60.31;101265.22;4984343;28;20050;-68
2023/10/23 02:33:22;;;;;;;3.88;2.83;;;;;;;3.47;60.48;101261.78;4974730;28;20034;-69
2023/10/23 02:35:48;;;;;;;3.17;2.50;;;;;;;3.50;60.14;101266.97;4987009;28;20297;-68
2023/10/23 02:38:13;;;;;;;3.65;2.40;;;;;;;3.48;60.54;101264.38;4961941;28;20091;-70
2023/10/23 02:40:39;;;;;;;4.13;2.35;;;;;;;3.53;60.12;101272.13;4981608;28;20031;-67
2023/10/23 02:43:05;;;;;;;3.70;2.50;;;;;;;3.47;60.34;101272.13;4979285;28;20105;-67
2023/10/23 02:45:33;;;;;;;3.17;2.55;;;;;;;3.48;60.43;101279.88;4983453;28;20167;-69
2023/10/23 02:47:59;;;;;;;7.13;2.30;;;;;;;3.44;60.34;101270.44;4979293;28;20138;-68
2023/10/23 02:50:24;;;;;;;4.05;2.65;;;;;;;3.37;60.39;101267.00;4966674;28;20452;-67
2023/10/23 02:52:50;;;;;;;4.40;2.65;;;;;;;3.43;60.28;101260.97;4984475;28;20037;-67
2023/10/23 02:55:16;;;;;;;3.63;2.55;;;;;;;3.35;60.08;101273.03;4975563;28;20258;-69
2023/10/23 02:57:42;;;;;;;4.45;2.70;;;;;;;3.33;60.12;101272.19;4962631;28;20052;-68
2023/10/23 03:00:08;;;;;;;2.50;1.85;;;;;;;3.27;60.32;101275.63;4984718;28;20042;-69
2023/10/23 03:02:35;;;;;;;6.28;2.75;;;;;;;3.24;60.29;101283.38;4976497;28;20137;-71
2023/10/23 03:05:01;;;;;;;4.07;1.92;;;;;;;3.24;59.68;101277.34;4969420;28;20092;-69
2023/10/23 03:07:26;;;;;;;5.05;2.50;;;;;;;3.21;59.92;101279.97;4964659;28;22056;-65
2023/10/23 03:09:52;;;;;;;3.05;1.80;;;;;;;3.19;59.55;101288.56;4985483;28;21231;-69
2023/10/23 03:12:17;;;;;;;2.90;2.13;;;;;;;3.14;60.01;101284.28;4981611;28;20037;-69
2023/10/23 03:14:43;;;;;;;2.85;1.67;;;;;;;3.16;59.67;101286.00;4978926;28;20030;-69
2023/10/23 03:17:08;;;;;;;5.43;2.33;;;;;;;3.12;59.95;101284.28;4959462;28;20262;-66
2023/10/23 03:19:34;;;;;;;5.55;2.10;;;;;;;3.07;59.59;101287.72;4977245;28;20042;-68
2023/10/23 03:21:59;;;;;;;3.38;1.95;;;;;;;3.04;59.75;101288.59;4978653;28;20394;-69
2023/10/23 03:24:25;;;;;;;3.40;2.17;;;;;;;3.04;59.83;101296.34;4960640;28;20118;-66
2023/10/23 03:26:50;;;;;;;3.13;2.13;;;;;;;3.07;59.63;101298.94;4978931;28;20038;-70
2023/10/23 03:29:17;;;;;;;8.55;2.70;;;;;;;3.07;60.03;101298.94;4974061;28;20042;-69
2023/10/23 03:31:43;;;;;;;6.68;2.97;;;;;;;3.05;59.75;101295.50;4983770;28;20034;-66
2023/10/23 03:34:08;;;;;;;3.95;2.70;;;;;;;3.00;60.35;101289.44;4977575;28;20045;-67
2023/10/23 03:36:34;;;;;;;4.00;2.38;;;;;;;2.97;60.34;101294.63;4977470;28;20432;-69
2023/10/23 03:38:59;;;;;;;4.53;2.10;;;;;;;2.94;60.29;101292.06;4972881;28;21360;-67
2023/10/23 03:41:27;;;;;;;4.30;2.60;;;;;;;2.96;60.05;101291.19;4984075;28;20034;-69
2023/10/23 03:43:52;;;;;;;3.17;2.03;;;;;;;2.99;60.07;101295.50;4985047;28;20544;-68
2023/10/23 03:46:18;;;;;;;3.65;1.92;;;;;;;3.00;60.25;101296.34;4979505;28;20027;-68
2023/10/23 03:48:43;;;;;;;2.80;2.05;;;;;;;2.99;59.99;101300.66;4982515;28;20035;-67
2023/10/23 03:51:09;;;;;;;4.68;2.92;;;;;;;3.03;59.59;101298.94;4986725;28;20026;-69
2023/10/23 03:53:34;;;;;;;4.50;2.50;;;;;;;2.97;59.64;101300.66;4980828;28;20374;-69
2023/10/23 03:56:00;;;;;;;3.92;1.98;;;;;;;2.94;59.58;101299.81;4982856;28;20073;-69
2023/10/23 03:58:25;;;;;;;4.70;2.13;;;;;;;2.93;59.57;101295.50;4965024;28;20539;-69
2023/10/23 04:00:52;;;;;;;4.15;1.98;;;;;;;2.98;59.66;101311.88;4968286;28;20038;-68
2023/10/23 04:03:18;;;;;;;4.18;1.80;;;;;;;2.97;59.75;101310.13;4977391;28;20202;-67
2023/10/23 04:05:45;;;;;;;3.47;2.00;;;;;;;3.00;59.87;101312.69;4976998;28;20034;-67
2023/10/23 04:08:11;;;;;;;6.10;2.70;;;;;;;3.01;59.83;101317.00;4976326;28;20038;-66
2023/10/23 04:10:36;;;;;;;4.38;2.47;;;;;;;3.00;60.19;101317.84;4962299;28;20048;-68
2023/10/23 04:13:02;;;;;;;4.35;2.30;;;;;;;3.01;59.97;101319.59;4976691;28;20120;-70
2023/10/23 04:15:28;;;;;;;5.15;3.33;;;;;;;3.02;60.05;101323.03;4976886;28;20095;-70
2023/10/23 04:17:53;;;;;;;5.50;3.15;;;;;;;3.01;60.32;101327.34;4974412;28;20253;-69
2023/10/23 04:20:19;;;;;;;4.28;2.90;;;;;;;3.07;60.27;101327.34;4976465;28;20025;-69
2023/10/23 04:22:44;;;;;;;6.13;3.15;;;;;;;3.05;60.67;101321.31;4982355;28;20116;-69
2023/10/23 04:25:10;;;;;;;8.07;3.33;;;;;;;3.07;60.34;101327.34;4976767;28;20518;-68
2023/10/23 04:27:36;;;;;;;5.03;2.95;;;;;;;3.10;61.00;101329.06;4969879;28;20042;-69
2023/10/23 04:30:04;;;;;;;6.05;3.60;;;;;;;3.12;60.41;101328.19;4979188;28;20038;-67
2023/10/23 04:32:30;;;;;;;6.88;3.50;;;;;;;3.13;60.94;101329.91;4974170;28;20301;-68
2023/10/23 04:34:55;;;;;;;4.40;3.10;;;;;;;3.19;60.64;101332.47;4978226;28;20026;-68
2023/10/23 04:37:21;;;;;;;5.85;3.17;;;;;;;3.25;60.82;101325.56;4979092;28;20107;-69
2023/10/23 04:39:46;;;;;;;4.07;2.92;;;;;;;3.23;60.48;101327.31;4977233;28;20557;-69
2023/10/23 04:42:12;;;;;;;3.53;2.90;;;;;;;3.22;60.38;101323.00;4975118;28;20038;-66
2023/10/23 04:44:37;;;;;;;4.82;3.38;;;;;;;3.17;60.21;101331.63;4976442;28;20034;-69
2023/10/23 04:47:03;;;;;;;4.80;3.42;;;;;;;3.14;60.21;101331.63;4978999;28;20041;-69
2023/10/23 04:49:28;;;;;;;6.40;3.67;;;;;;;3.09;60.48;101328.22;4976566;28;20038;-68
2023/10/23 04:51:54;;;;;;;4.80;2.65;;;;;;;3.05;60.31;101321.31;4979348;28;20266;-69
2023/10/23 04:54:19;;;;;;;6.03;3.78;;;;;;;3.03;60.35;101333.38;4979207;28;23150;-68
2023/10/23 04:56:46;;;;;;;6.25;3.20;;;;;;;3.01;60.13;101340.25;4975958;28;20193;-69
2023/10/23 04:59:12;;;;;;;5.15;3.30;;;;;;;3.06;60.49;101338.53;4981877;28;20048;-67
2023/10/23 05:01:38;;;;;;;6.57;3.70;;;;;;;3.04;60.81;101335.06;4974882;28;20424;-67
2023/10/23 05:04:04;;;;;;;5.28;4.07;;;;;;;3.13;60.56;101339.38;4975067;28;20309;-69
2023/10/23 05:06:29;;;;;;;6.75;3.90;;;;;;;3.17;60.61;101335.94;4980707;28;20385;-69
2023/10/23 05:08:54;;;;;;;10.50;4.40;;;;;;;3.19;60.51;101329.88;4972936;28;20493;-69
2023/10/23 05:11:20;;;;;;;5.10;3.35;;;;;;;3.27;60.66;101331.59;4971031;28;20034;-69
2023/10/23 05:13:46;;;;;;;8.77;4.40;;;;;;;3.34;61.14;101336.78;4979485;28;20033;-68
2023/10/23 05:16:16;;;;;;;4.95;3.42;;;;;;;3.48;61.44;101341.91;4967761;28;20026;-68
2023/10/23 05:18:42;;;;;;;7.38;4.47;;;;;;;3.59;60.86;101337.56;4978563;28;20409;-69
2023/10/23 05:21:12;;;;;;;6.53;4.13;;;;;;;3.65;61.08;101341.00;4978033;28;20084;-68
2023/10/23 05:23:41;;;;;;;8.45;4.80;;;;;;;3.73;61.09;101345.28;4984127;28;20038;-68
2023/10/23 05:26:10;;;;;;;6.53;4.65;;;;;;;3.82;61.59;101341.78;4985505;28;20677;-68
2023/10/23 05:28:38;;;;;;;6.88;5.00;;;;;;;3.89;61.27;101346.06;4974931;28;20046;-68
2023/10/23 05:31:03;;;;;;;8.77;4.80;;;;;;;3.96;61.47;101347.78;4979827;28;20034;-68
2023/10/23 05:33:29;;;;;;;7.75;4.68;;;;;;;4.10;61.43;101349.44;4978853;28;20512;-68
2023/10/23 05:36:09;;;;;;;8.27;4.90;;;;;;;4.21;61.40;101353.66;4980744;28;20040;-67
2023/10/23 05:38:36;;;;;;;11.07;5.78;;;;;;;4.27;61.29;101363.09;4991522;28;20469;-69
2023/10/23 05:41:02;;;;;;;7.97;5.70;;;;;;;4.30;61.24;101360.53;4979577;28;20037;-67
2023/10/23 05:43:28;;;;;;;6.72;4.95;;;;;;;4.34;61.44;101361.34;4982476;28;20051;-68
2023/10/23 05:45:54;;;;;;;7.13;5.70;;;;;;;4.34;61.21;101356.16;4977508;28;20053;-68
2023/10/23 05:48:20;;;;;;;7.75;5.30;;;;;;;4.33;60.87;101363.09;4975142;28;20653;-68
2023/10/23 05:50:45;;;;;;;6.22;3.85;;;;;;;4.29;60.84;101369.13;4978987;28;20133;-68
2023/10/23 05:53:11;;;;;;;7.57;4.70;;;;;;;4.15;60.67;101365.78;4976425;28;20041;-67
2023/10/23 05:55:36;;;;;;;7.93;4.63;;;;;;;4.13;60.64;101364.94;4982764;28;20040;-68
2023/10/23 05:58:02;;;;;;;5.30;3.95;;;;;;;4.11;60.55;101367.50;4985132;28;20056;-66
2023/10/23 06:00:28;;;;;;;5.75;3.70;;;;;;;4.05;60.52;101369.28;4974205;28;20112;-66
2023/10/23 06:02:54;;;;;;;5.68;4.05;;;;;;;3.97;60.48;101367.59;4975424;28;20100;-67
2023/10/23 06:05:20;;;;;;;6.53;4.10;;;;;;;3.98;60.61;101374.50;4976716;28;20223;-66
2023/10/23 06:07:45;;;;;;;5.18;3.67;;;;;;;3.94;60.48;101370.19;4978918;28;20285;-67
2023/10/23 06:10:10;;;;;;;6.88;4.18;;;;;;;3.83;60.49;101369.38;4978289;28;20542;-66
2023/10/23 06:12:36;;;;;;;8.48;4.35;;;;;;;3.71;60.27;101374.59;4976436;28;20069;-67
2023/10/23 06:15:03;;;;;;;5.97;4.28;;;;;;;3.71;60.23;101374.59;4980418;28;20155;-67
2023/10/23 06:17:28;;;;;;;7.93;4.47;;;;;;;3.66;60.59;101377.19;4977341;28;20045;-67
2023/10/23 06:19:54;;;;;;;8.45;5.15;;;;;;;3.67;60.58;101386.69;4976532;28;20037;-66
2023/10/23 06:22:19;;;;;;;6.53;4.47;;;;;;;3.65;60.79;101385.81;4983396;28;20046;-66
2023/10/23 06:24:45;;;;;;;8.65;4.70;;;;;;;3.67;60.79;101394.44;4984161;28;20040;-67
2023/10/23 06:27:10;;;;;;;11.30;5.03;;;;;;;3.68;61.05;101395.28;4978472;28;20137;-66
2023/10/23 06:29:36;;;;;;;6.95;4.60;;;;;;;3.77;61.09;101393.53;4981828;28;20037;-67
2023/10/23 06:32:02;;;;;;;10.75;5.40;;;;;;;3.86;61.12;101394.38;4978889;28;20049;-67
2023/10/23 06:34:28;;;;;;;8.82;6.20;;;;;;;3.94;61.41;101396.06;4989619;28;20029;-68
2023/10/23 06:36:53;;;;;;;7.85;4.68;;;;;;;4.09;61.67;101407.19;4986028;28;20183;-66
2023/10/23 06:39:19;;;;;;;9.68;5.57;;;;;;;4.26;61.68;101401.97;4976043;28;20050;-66
2023/10/23 06:41:45;;;;;;;10.75;5.13;;;;;;;4.43;61.42;101395.81;4975994;28;20081;-67
2023/10/23 06:44:10;;;;;;;7.47;5.28;;;;;;;4.48;61.16;101403.56;4978295;28;20492;-66
2023/10/23 06:46:37;;;;;;;8.25;5.25;;;;;;;4.46;61.00;101410.47;4983690;28;20077;-66
2023/10/23 06:49:02;;;;;;;9.88;5.38;;;;;;;4.43;61.16;101416.53;4978631;28;20177;-67
2023/10/23 06:51:28;;;;;;;7.93;5.70;;;;;;;4.36;61.40;101416.53;4960165;28;20030;-67
2023/10/23 06:53:53;;;;;;;8.57;5.55;;;;;;;4.50;61.08;101424.22;4977382;28;20440;-67
2023/10/23 06:56:19;;;;;;;9.18;6.32;;;;;;;4.52;60.92;101419.91;4977591;28;20347;-67
2023/10/23 06:58:44;;;;;;;11.10;6.10;;;;;;;4.52;61.21;101425.09;4977628;28;20085;-67
2023/10/23 07:01:10;;;;;;;11.02;6.45;;;;;;;4.45;61.26;101420.81;4979602;28;20648;-67
2023/10/23 07:03:35;;;;;;;8.95;6.07;;;;;;;4.48;61.36;101420.81;4978534;28;20051;-66
2023/10/23 07:06:06;;;;;;;12.57;6.85;;;;;;;4.71;61.26;101423.25;4978209;28;20076;-68
2023/10/23 07:08:32;;;;;;;7.05;5.47;;;;;;;4.75;60.94;101425.81;4973644;28;20455;-68
2023/10/23 07:10:57;;;;;;;11.23;5.78;;;;;;;4.62;61.35;101425.03;4976623;28;20556;-67
2023/10/23 07:13:23;;;;;;;11.38;6.75;;;;;;;4.76;61.35;101417.16;4975152;28;20560;-66
2023/10/23 07:15:49;;;;;;;8.88;6.68;;;;;;;6.22;60.76;101425.28;4986540;28;20053;-65
2023/10/23 07:18:16;;;;;;;9.52;6.78;;;;;;;8.19;57.90;101424.59;4984309;28;20062;-67
2023/10/23 07:20:52;;;;;;;9.25;5.57;;;;;;;9.46;54.05;101420.72;4965189;28;20578;-69
2023/10/23 07:23:18;;;;;;;6.18;4.50;;;;;;;10.64;47.30;101428.63;4989995;28;20042;-67
2023/10/23 07:25:44;;;;;;;9.27;5.18;;;;;;;11.45;46.96;101421.63;4976136;28;21350;-68
2023/10/23 07:28:09;;;;;;;5.25;4.57;;;;;;;12.32;43.41;101429.84;4976540;28;20125;-66
2023/10/23 07:30:35;;;;;;;6.90;3.28;;;;;;;12.78;40.21;101428.03;4976681;28;20030;-66
2023/10/23 07:33:00;;;;;;;3.63;3.03;;;;;;;12.12;42.44;101428.84;4981340;28;20416;-66
2023/10/23 07:35:26;;;;;;;3.40;3.00;;;;;;;12.32;40.06;101425.47;4962680;28;20038;-67
2023/10/23 07:37:51;;;;;;;6.40;3.38;;;;;;;12.74;39.38;101423.88;4977810;28;20049;-66
2023/10/23 07:40:17;;;;;;;7.43;3.28;;;;;;;12.46;39.23;101420.53;4980637;28;20026;-67
2023/10/23 07:42:42;;;;;;;7.00;3.15;;;;;;;13.63;38.17;101423.63;4962965;28;20073;-67
2023/10/23 07:45:08;;;;;;;4.25;3.28;;;;;;;14.26;37.84;101417.28;4977515;28;20551;-69
2023/10/23 07:47:34;;;;;;;3.35;2.42;;;;;;;14.95;37.17;101420.06;4971609;28;20523;-67
2023/10/23 07:49:59;;;;;;;3.80;3.20;;;;;;;15.33;35.36;101414.66;4978904;28;20136;-67
2023/10/23 07:52:24;;;;;;;3.50;2.35;;;;;;;15.91;35.72;101423.91;4975936;28;20248;-67
2023/10/23 07:54:50;;;;;;;4.65;2.63;;;;;;;16.37;34.43;101421.41;4972925;28;20030;-66
2023/10/23 07:57:15;;;;;;;4.80;2.65;;;;;;;16.48;33.66;101427.88;4977234;28;20030;-66
2023/10/23 07:59:41;;;;;;;2.97;2.67;;;;;;;17.08;32.73;101433.22;4974330;28;20465;-67
2023/10/23 08:02:06;;;;;;;4.32;3.03;;;;;;;17.19;31.43;101443.16;4982194;28;20524;-66
2023/10/23 08:04:33;;;;;;;4.63;2.88;;;;;;;16.92;33.43;101438.56;4976414;28;20030;-67
2023/10/23 08:06:59;;;;;;;2.90;2.60;;;;;;;16.93;33.92;101434.13;4978039;28;20030;-69
2023/10/23 08:09:25;;;;;;;5.57;2.88;;;;;;;16.97;31.65;101441.78;4973658;28;20701;-66
2023/10/23 08:11:50;;;;;;;5.85;2.90;;;;;;;16.33;33.47;101440.13;4974651;28;20026;-66
2023/10/23 08:14:16;;;;;;;3.22;2.60;;;;;;;16.60;33.09;101427.19;4975849;28;20039;-68
2023/10/23 08:16:41;;;;;;;8.20;3.30;;;;;;;15.68;34.16;101440.94;4975875;28;20530;-68
2023/10/23 08:19:09;;;;;;;4.65;2.80;;;;;;;15.10;35.74;101436.88;4989709;28;20378;-69
2023/10/23 08:21:34;;;;;;;3.85;2.92;;;;;;;14.81;35.87;101437.47;4972722;28;20153;-69
2023/10/23 08:24:03;;;;;;;3.90;2.85;;;;;;;15.11;36.18;101438.56;4978312;28;20034;-68
2023/10/23 08:26:29;;;;;;;8.35;4.20;;;;;;;14.22;37.02;101431.47;4970782;28;20035;-67
2023/10/23 08:28:54;;;;;;;4.03;3.00;;;;;;;14.24;37.85;101425.22;4978541;28;20052;-67
2023/10/23 08:31:20;;;;;;;2.97;2.50;;;;;;;14.24;38.28;101430.47;4972918;28;20027;-68
2023/10/23 08:33:46;;;;;;;6.97;2.83;;;;;;;14.68;37.12;101435.44;4972977;28;20462;-66
2023/10/23 08:36:12;;;;;;;4.45;2.70;;;;;;;14.19;38.10;101429.84;4976063;28;20026;-68
2023/10/23 08:38:37;;;;;;;4.15;2.97;;;;;;;13.65;40.03;101431.41;4974560;28;20386;-68
2023/10/23 08:41:03;;;;;;;5.00;3.47;;;;;;;13.20;41.30;101427.19;4976820;28;20046;-68
2023/10/23 08:43:32;;;;;;;6.00;3.63;;;;;;;12.89;40.45;101425.84;4974560;28;20038;-68
2023/10/23 08:46:00;;;;;;;4.95;2.88;;;;;;;13.15;41.03;101430.00;4979257;28;20046;-69
2023/10/23 08:48:25;;;;;;;4.90;2.88;;;;;;;13.83;40.15;101430.59;4973868;28;20057;-67
2023/10/23 08:50:51;;;;;;;4.22;3.05;;;;;;;13.44;38.57;101428.78;4979229;28;20042;-69
2023/10/23 08:53:22;;;;;;;3.58;3.15;;;;;;;12.29;41.79;101430.84;4976030;28;20038;-68
2023/10/23 08:55:48;;;;;;;4.85;2.30;;;;;;;13.18;40.68;101424.63;4985767;28;20038;-67
2023/10/23 08:58:17;;;;;;;4.72;2.67;;;;;;;13.26;40.46;101419.06;4977577;28;20123;-68
2023/10/23 09:00:42;;;;;;;3.70;3.08;;;;;;;13.67;38.87;101417.31;4992177;28;20100;-69
2023/10/23 09:03:09;;;;;;;5.05;3.88;;;;;;;13.42;40.16;101417.47;4985886;28;20042;-68
2023/10/23 09:05:35;;;;;;;3.75;2.90;;;;;;;13.99;38.57;101428.13;4979081;28;20052;-68
2023/10/23 09:08:01;;;;;;;3.17;2.88;;;;;;;13.83;39.61;101427.09;4981235;28;20155;-68
2023/10/23 09:10:27;;;;;;;3.00;2.70;;;;;;;14.11;38.92;101424.09;4983406;28;20064;-69
2023/10/23 09:12:58;;;;;;;3.53;2.13;;;;;;;13.87;40.06;101426.91;4976987;28;20505;-68
2023/10/23 09:15:24;;;;;;;6.70;3.10;;;;;;;13.87;40.42;101426.91;4980205;28;20412;-67
2023/10/23 09:17:50;;;;;;;5.15;3.13;;;;;;;14.30;39.96;101424.06;4960446;28;21449;-67
2023/10/23 09:20:16;;;;;;;2.67;2.15;;;;;;;14.71;37.86;101429.16;4979067;28;20036;-67
2023/10/23 09:22:47;;;;;;;2.85;2.63;;;;;;;15.21;37.55;101428.41;4982210;28;20062;-68
2023/10/23 09:25:16;;;;;;;2.67;2.42;;;;;;;14.97;38.80;101441.06;4982215;28;20198;-68
2023/10/23 09:27:43;;;;;;;2.47;2.20;;;;;;;15.04;37.71;101437.19;4976691;28;20052;-67
2023/10/23 09:30:09;;;;;;;5.15;2.63;;;;;;;15.55;37.69;101432.84;4971971;28;20646;-69
2023/10/23 09:32:36;;;;;;;3.10;2.55;;;;;;;15.85;35.99;101440.06;4979984;28;20492;-68
2023/10/23 09:35:06;;;;;;;3.08;2.55;;;;;;;14.38;37.44;101442.13;4985012;28;20026;-68
2023/10/23 09:37:32;;;;;;;3.13;2.40;;;;;;;14.70;39.64;101454.63;4977174;28;20038;-68
2023/10/23 09:40:13;;;;;;;9.75;2.83;;;;;;;14.97;37.65;101441.06;4988688;28;20033;-69
2023/10/23 09:42:40;;;;;;;8.38;3.05;;;;;;;15.62;36.80;101443.91;4978376;28;20390;-68
2023/10/23 09:45:06;;;;;;;4.57;2.83;;;;;;;15.15;38.16;101445.41;4980242;28;20034;-67
2023/10/23 09:47:32;;;;;;;3.08;1.90;;;;;;;14.26;38.16;101447.03;4968615;28;20331;-68
2023/10/23 09:49:59;;;;;;;3.30;2.20;;;;;;;14.47;39.76;101441.72;4980024;28;20034;-68
2023/10/23 09:52:26;;;;;;;4.32;1.40;;;;;;;15.00;38.28;101440.88;4984039;28;20092;-66
2023/10/23 09:55:05;;;;;;;2.95;2.38;;;;;;;15.65;38.10;101440.28;4980226;28;20045;-68
2023/10/23 09:57:37;;;;;;;3.88;1.83;;;;;;;16.15;37.34;101442.88;4992486;28;20520;-68
2023/10/23 10:00:15;;;;;;;5.20;1.95;;;;;;;16.65;36.65;101440.97;4980275;28;20030;-68
2023/10/23 10:02:45;;;;;;;4.45;1.65;;;;;;;16.86;35.81;101438.06;4976085;28;20046;-68
2023/10/23 10:05:38;;;;;;;2.80;1.70;;;;;;;16.78;35.60;101435.88;4993869;28;20034;-67
2023/10/23 10:08:08;;;;;;;3.88;1.55;;;;;;;17.30;34.73;101438.09;4984924;28;20046;-67
2023/10/23 10:10:36;;;;;;;3.65;1.70;;;;;;;17.24;33.96;101433.19;4978318;28;20069;-68
2023/10/23 10:13:03;;;;;;;4.35;1.15;;;;;;;16.49;34.86;101437.47;4979166;28;20157;-68
2023/10/23 10:15:30;;;;;;;2.05;1.40;;;;;;;16.50;34.22;101439.19;4970339;28;20555;-68
2023/10/23 10:17:55;;;;;;;1.60;1.02;;;;;;;16.58;34.44;101427.28;4976175;28;20119;-68
2023/10/23 10:20:22;;;;;;;3.08;1.40;;;;;;;16.29;34.08;101438.63;4982162;28;20030;-68
2023/10/23 10:23:08;;;;;;;2.55;1.00;;;;;;;15.86;35.67;101435.63;4975780;28;20078;-68
2023/10/23 10:25:35;;;;;;;2.50;1.10;;;;;;;16.58;34.91;101437.84;4981345;28;20324;-69
2023/10/23 10:28:06;;;;;;;1.90;1.08;;;;;;;15.82;35.29;101434.97;4980431;28;20631;-68
2023/10/23 10:30:43;;;;;;;2.95;1.10;;;;;;;16.00;35.84;101427.88;4977833;28;20329;-68
2023/10/23 10:33:26;;;;;;;3.33;1.35;;;;;;;16.53;35.26;101416.16;4979345;28;20081;-68
2023/10/23 10:35:58;;;;;;;2.22;0.90;;;;;;;17.00;34.60;101425.78;4984055;28;20026;-68
2023/10/23 10:38:25;;;;;;;2.22;0.98;;;;;;;17.53;33.78;101414.75;4980117;28;20101;-68
2023/10/23 10:40:56;;;;;;;2.53;1.00;;;;;;;17.63;33.64;101419.38;4983448;28;20038;-67
2023/10/23 10:43:31;;;;;;;2.65;0.50;;;;;;;17.75;32.86;101415.13;4980771;28;20128;-66
2023/10/23 10:45:56;;;;;;;7.57;0.75;;;;;;;16.85;32.73;101415.25;4976644;28;20492;-67
2023/10/23 10:48:24;;;;;;;2.25;0.80;;;;;;;17.33;33.49;101411.47;4975862;28;20041;-67
2023/10/23 10:50:50;;;;;;;6.35;0.93;;;;;;;17.72;31.70;101411.84;4984672;28;20030;-67
2023/10/23 10:53:15;;;;;;;2.53;1.17;;;;;;;17.13;32.15;101422.41;4980288;28;20057;-66
2023/10/23 10:55:47;;;;;;;1.67;0.80;;;;;;;17.47;33.11;101415.09;4976774;28;20057;-66
2023/10/23 10:58:13;;;;;;;6.03;1.67;;;;;;;17.30;33.65;101418.75;4992032;28;20045;-70
2023/10/23 11:00:39;;;;;;;6.90;1.05;;;;;;;16.89;33.57;101411.47;4981013;28;20049;-69
2023/10/23 11:03:06;;;;;;;0.95;0.50;;;;;;;17.21;32.88;101413.06;4978036;28;20409;-66
2023/10/23 11:05:32;;;;;;;2.55;0.55;;;;;;;17.65;32.08;101409.56;4977859;28;20410;-69
2023/10/23 11:07:58;;;;;;;2.45;0.47;;;;;;;17.50;31.63;101414.94;4973306;28;20527;-69
2023/10/23 11:10:23;;;;;;;2.42;0.43;;;;;;;17.43;32.80;101409.16;4981225;28;20060;-69
2023/10/23 11:12:52;;;;;;;4.20;0.45;;;;;;;17.49;31.20;101405.31;4982301;28;20041;-66
2023/10/23 11:15:17;;;;;;;2.78;0.43;;;;;;;17.72;31.51;101406.56;4977578;28;20034;-67
2023/10/23 11:17:43;;;;;;;1.10;0.30;;;;;;;17.74;32.09;101405.50;4979178;28;21293;-66
2023/10/23 11:20:13;;;;;;;1.17;0.20;;;;;;;17.85;30.65;101407.50;4979133;28;20131;-66
2023/10/23 11:22:47;;;;;;;1.83;0.40;;;;;;;17.58;31.80;101400.31;4990452;28;20162;-66
2023/10/23 11:25:14;;;;;;;0.80;0.20;;;;;;;17.11;31.57;101398.72;4979969;28;20035;-67
2023/10/23 11:27:40;;;;;;;1.45;0.20;;;;;;;17.57;31.75;101395.97;4972688;28;20375;-66